sensor_id;sensor_type;location;lat;lon;timestamp;P1;durP1;ratioP1;P2;durP2;ratioP2
19396;SDS011;9834;48.076;11.878;2023-08-30T00:01:55;9.37;;;8.47;;
19396;SDS011;9834;48.076;11.878;2023-08-30T00:04:22;9.20;;;7.57;;
19396;SDS011;9834;48.076;11.878;2023-08-30T00:06:59;9.57;;;8.10;;
19396;SDS011;9834;48.076;11.878;2023-08-30T00:09:26;10.20;;;9.10;;
19396;SDS011;9834;48.076;11.878;2023-08-30T00:11:57;10.53;;;8.63;;
19396;SDS011;9834;48.076;11.878;2023-08-30T00:14:28;10.37;;;9.37;;
19396;SDS011;9834;48.076;11.878;2023-08-30T00:16:55;11.27;;;9.23;;
19396;SDS011;9834;48.076;11.878;2023-08-30T00:19:22;9.53;;;8.57;;
19396;SDS011;9834;48.076;11.878;2023-08-30T00:21:52;10.17;;;9.07;;
19396;SDS011;9834;48.076;11.878;2023-08-30T00:27:02;12.40;;;8.67;;
19396;SDS011;9834;48.076;11.878;2023-08-30T00:29:34;10.80;;;9.73;;
19396;SDS011;9834;48.076;11.878;2023-08-30T00:32:01;10.90;;;9.80;;
19396;SDS011;9834;48.076;11.878;2023-08-30T00:34:28;10.93;;;8.97;;
19396;SDS011;9834;48.076;11.878;2023-08-30T00:37:01;12.27;;;10.10;;
19396;SDS011;9834;48.076;11.878;2023-08-30T00:39:41;13.67;;;10.67;;
19396;SDS011;9834;48.076;11.878;2023-08-30T00:42:13;14.37;;;9.77;;
19396;SDS011;9834;48.076;11.878;2023-08-30T00:44:49;12.83;;;10.80;;
19396;SDS011;9834;48.076;11.878;2023-08-30T00:47:16;11.63;;;10.37;;
19396;SDS011;9834;48.076;11.878;2023-08-30T00:49:43;10.93;;;9.80;;
19396;SDS011;9834;48.076;11.878;2023-08-30T00:52:13;13.60;;;11.17;;
19396;SDS011;9834;48.076;11.878;2023-08-30T00:54:49;12.57;;;10.70;;
19396;SDS011;9834;48.076;11.878;2023-08-30T00:57:23;12.20;;;10.93;;
19396;SDS011;9834;48.076;11.878;2023-08-30T00:59:53;11.60;;;9.97;;
19396;SDS011;9834;48.076;11.878;2023-08-30T01:02:26;12.83;;;9.90;;
19396;SDS011;9834;48.076;11.878;2023-08-30T01:05:02;12.07;;;10.83;;
19396;SDS011;9834;48.076;11.878;2023-08-30T01:07:29;14.37;;;10.63;;
19396;SDS011;9834;48.076;11.878;2023-08-30T01:10:05;12.10;;;10.57;;
19396;SDS011;9834;48.076;11.878;2023-08-30T01:12:34;11.60;;;10.10;;
19396;SDS011;9834;48.076;11.878;2023-08-30T01:15:22;12.97;;;10.50;;
19396;SDS011;9834;48.076;11.878;2023-08-30T01:17:51;12.17;;;9.80;;
19396;SDS011;9834;48.076;11.878;2023-08-30T01:20:23;13.53;;;10.40;;
19396;SDS011;9834;48.076;11.878;2023-08-30T01:22:59;11.23;;;9.13;;
19396;SDS011;9834;48.076;11.878;2023-08-30T01:25:42;13.97;;;10.47;;
19396;SDS011;9834;48.076;11.878;2023-08-30T01:28:30;12.00;;;9.53;;
19396;SDS011;9834;48.076;11.878;2023-08-30T01:31:01;10.97;;;9.37;;
19396;SDS011;9834;48.076;11.878;2023-08-30T01:33:30;9.80;;;8.80;;
19396;SDS011;9834;48.076;11.878;2023-08-30T01:35:59;17.00;;;9.80;;
19396;SDS011;9834;48.076;11.878;2023-08-30T01:38:35;11.00;;;9.50;;
19396;SDS011;9834;48.076;11.878;2023-08-30T01:41:07;10.47;;;8.60;;
19396;SDS011;9834;48.076;11.878;2023-08-30T01:43:35;11.93;;;9.53;;
19396;SDS011;9834;48.076;11.878;2023-08-30T01:46:13;13.87;;;9.93;;
19396;SDS011;9834;48.076;11.878;2023-08-30T01:48:42;14.70;;;8.27;;
19396;SDS011;9834;48.076;11.878;2023-08-30T01:51:13;10.27;;;8.23;;
19396;SDS011;9834;48.076;11.878;2023-08-30T01:53:45;9.40;;;8.40;;
19396;SDS011;9834;48.076;11.878;2023-08-30T01:56:16;9.87;;;8.87;;
19396;SDS011;9834;48.076;11.878;2023-08-30T01:58:56;10.27;;;9.10;;
19396;SDS011;9834;48.076;11.878;2023-08-30T02:01:34;11.30;;;8.63;;
19396;SDS011;9834;48.076;11.878;2023-08-30T02:04:04;12.60;;;9.93;;
19396;SDS011;9834;48.076;11.878;2023-08-30T02:06:33;10.73;;;8.90;;
19396;SDS011;9834;48.076;11.878;2023-08-30T02:09:12;9.23;;;8.33;;
19396;SDS011;9834;48.076;11.878;2023-08-30T02:11:46;12.30;;;10.07;;
19396;SDS011;9834;48.076;11.878;2023-08-30T02:17:16;9.07;;;8.13;;
19396;SDS011;9834;48.076;11.878;2023-08-30T02:19:44;10.87;;;8.67;;
19396;SDS011;9834;48.076;11.878;2023-08-30T02:22:13;13.37;;;9.17;;
19396;SDS011;9834;48.076;11.878;2023-08-30T02:24:40;11.17;;;8.70;;
19396;SDS011;9834;48.076;11.878;2023-08-30T02:27:21;11.50;;;8.43;;
19396;SDS011;9834;48.076;11.878;2023-08-30T02:29:49;12.33;;;8.70;;
19396;SDS011;9834;48.076;11.878;2023-08-30T02:32:19;9.67;;;8.77;;
19396;SDS011;9834;48.076;11.878;2023-08-30T02:34:49;11.10;;;9.23;;
19396;SDS011;9834;48.076;11.878;2023-08-30T02:37:17;9.33;;;8.43;;
19396;SDS011;9834;48.076;11.878;2023-08-30T02:39:49;9.63;;;7.70;;
19396;SDS011;9834;48.076;11.878;2023-08-30T02:42:19;12.97;;;8.93;;
19396;SDS011;9834;48.076;11.878;2023-08-30T02:44:54;12.00;;;8.73;;
19396;SDS011;9834;48.076;11.878;2023-08-30T02:47:21;10.20;;;8.47;;
19396;SDS011;9834;48.076;11.878;2023-08-30T02:49:54;9.13;;;8.27;;
19396;SDS011;9834;48.076;11.878;2023-08-30T02:52:24;10.07;;;8.57;;
19396;SDS011;9834;48.076;11.878;2023-08-30T02:54:56;8.60;;;7.80;;
19396;SDS011;9834;48.076;11.878;2023-08-30T02:57:23;9.00;;;8.10;;
19396;SDS011;9834;48.076;11.878;2023-08-30T02:59:54;11.00;;;8.67;;
19396;SDS011;9834;48.076;11.878;2023-08-30T03:02:24;10.60;;;8.47;;
19396;SDS011;9834;48.076;11.878;2023-08-30T03:04:51;10.97;;;8.63;;
19396;SDS011;9834;48.076;11.878;2023-08-30T03:07:18;11.03;;;9.33;;
19396;SDS011;9834;48.076;11.878;2023-08-30T03:09:51;9.23;;;8.33;;
19396;SDS011;9834;48.076;11.878;2023-08-30T03:12:21;7.77;;;7.00;;
19396;SDS011;9834;48.076;11.878;2023-08-30T03:14:50;10.53;;;9.10;;
19396;SDS011;9834;48.076;11.878;2023-08-30T03:17:18;8.30;;;7.23;;
19396;SDS011;9834;48.076;11.878;2023-08-30T03:19:51;9.07;;;8.00;;
19396;SDS011;9834;48.076;11.878;2023-08-30T03:22:21;8.43;;;7.57;;
19396;SDS011;9834;48.076;11.878;2023-08-30T03:24:51;8.60;;;7.70;;
19396;SDS011;9834;48.076;11.878;2023-08-30T03:27:23;12.97;;;8.87;;
19396;SDS011;9834;48.076;11.878;2023-08-30T03:29:56;8.87;;;7.47;;
19396;SDS011;9834;48.076;11.878;2023-08-30T03:32:33;8.27;;;7.30;;
19396;SDS011;9834;48.076;11.878;2023-08-30T03:35:02;9.87;;;8.23;;
19396;SDS011;9834;48.076;11.878;2023-08-30T03:37:30;10.13;;;7.43;;
19396;SDS011;9834;48.076;11.878;2023-08-30T03:39:56;10.97;;;7.93;;
19396;SDS011;9834;48.076;11.878;2023-08-30T03:42:23;7.80;;;7.07;;
19396;SDS011;9834;48.076;11.878;2023-08-30T03:44:56;6.03;;;5.53;;
19396;SDS011;9834;48.076;11.878;2023-08-30T03:47:37;9.03;;;6.63;;
19396;SDS011;9834;48.076;11.878;2023-08-30T03:50:07;12.27;;;7.27;;
19396;SDS011;9834;48.076;11.878;2023-08-30T03:52:35;7.47;;;6.70;;
19396;SDS011;9834;48.076;11.878;2023-08-30T03:55:05;7.87;;;6.80;;
19396;SDS011;9834;48.076;11.878;2023-08-30T03:57:35;15.13;;;7.10;;
19396;SDS011;9834;48.076;11.878;2023-08-30T04:00:02;7.60;;;6.80;;
19396;SDS011;9834;48.076;11.878;2023-08-30T04:02:32;6.90;;;6.17;;
19396;SDS011;9834;48.076;11.878;2023-08-30T04:05:08;5.63;;;5.13;;
19396;SDS011;9834;48.076;11.878;2023-08-30T04:07:35;7.27;;;6.00;;
19396;SDS011;9834;48.076;11.878;2023-08-30T04:10:08;7.90;;;5.97;;
19396;SDS011;9834;48.076;11.878;2023-08-30T04:12:38;6.83;;;5.60;;
19396;SDS011;9834;48.076;11.878;2023-08-30T04:15:10;7.27;;;5.50;;
19396;SDS011;9834;48.076;11.878;2023-08-30T04:17:38;6.67;;;6.00;;
19396;SDS011;9834;48.076;11.878;2023-08-30T04:20:07;4.60;;;4.17;;
19396;SDS011;9834;48.076;11.878;2023-08-30T04:22:39;6.93;;;5.40;;
19396;SDS011;9834;48.076;11.878;2023-08-30T04:25:07;6.40;;;5.80;;
19396;SDS011;9834;48.076;11.878;2023-08-30T04:27:37;5.80;;;5.30;;
19396;SDS011;9834;48.076;11.878;2023-08-30T04:30:07;6.20;;;5.60;;
19396;SDS011;9834;48.076;11.878;2023-08-30T04:32:36;6.23;;;5.33;;
19396;SDS011;9834;48.076;11.878;2023-08-30T04:35:08;6.07;;;5.07;;
19396;SDS011;9834;48.076;11.878;2023-08-30T04:37:35;6.20;;;5.20;;
19396;SDS011;9834;48.076;11.878;2023-08-30T04:40:04;6.30;;;5.50;;
19396;SDS011;9834;48.076;11.878;2023-08-30T04:42:36;5.90;;;5.30;;
19396;SDS011;9834;48.076;11.878;2023-08-30T04:45:06;5.83;;;5.33;;
19396;SDS011;9834;48.076;11.878;2023-08-30T04:47:37;7.13;;;4.80;;
19396;SDS011;9834;48.076;11.878;2023-08-30T04:50:11;5.30;;;4.80;;
19396;SDS011;9834;48.076;11.878;2023-08-30T04:52:41;5.67;;;4.93;;
19396;SDS011;9834;48.076;11.878;2023-08-30T04:55:09;6.50;;;5.33;;
19396;SDS011;9834;48.076;11.878;2023-08-30T04:57:49;4.77;;;4.37;;
19396;SDS011;9834;48.076;11.878;2023-08-30T05:00:17;5.07;;;4.57;;
19396;SDS011;9834;48.076;11.878;2023-08-30T05:02:50;4.93;;;4.43;;
19396;SDS011;9834;48.076;11.878;2023-08-30T05:05:21;9.20;;;5.33;;
19396;SDS011;9834;48.076;11.878;2023-08-30T05:07:48;5.03;;;4.23;;
19396;SDS011;9834;48.076;11.878;2023-08-30T05:10:15;4.70;;;4.20;;
19396;SDS011;9834;48.076;11.878;2023-08-30T05:12:45;5.20;;;4.67;;
19396;SDS011;9834;48.076;11.878;2023-08-30T05:15:23;5.83;;;5.23;;
19396;SDS011;9834;48.076;11.878;2023-08-30T05:17:50;4.73;;;4.33;;
19396;SDS011;9834;48.076;11.878;2023-08-30T05:20:17;6.20;;;4.87;;
19396;SDS011;9834;48.076;11.878;2023-08-30T05:22:49;6.10;;;4.63;;
19396;SDS011;9834;48.076;11.878;2023-08-30T05:25:19;5.23;;;4.60;;
19396;SDS011;9834;48.076;11.878;2023-08-30T05:27:46;5.43;;;4.63;;
19396;SDS011;9834;48.076;11.878;2023-08-30T05:30:15;5.00;;;4.53;;
19396;SDS011;9834;48.076;11.878;2023-08-30T05:32:43;3.77;;;3.47;;
19396;SDS011;9834;48.076;11.878;2023-08-30T05:35:20;5.80;;;4.63;;
19396;SDS011;9834;48.076;11.878;2023-08-30T05:38:00;5.40;;;4.90;;
19396;SDS011;9834;48.076;11.878;2023-08-30T05:40:30;7.87;;;5.27;;
19396;SDS011;9834;48.076;11.878;2023-08-30T05:42:59;5.23;;;4.30;;
19396;SDS011;9834;48.076;11.878;2023-08-30T05:45:32;4.83;;;4.20;;
19396;SDS011;9834;48.076;11.878;2023-08-30T05:48:05;5.53;;;4.57;;
19396;SDS011;9834;48.076;11.878;2023-08-30T05:50:32;6.43;;;4.43;;
19396;SDS011;9834;48.076;11.878;2023-08-30T05:53:02;8.23;;;5.27;;
19396;SDS011;9834;48.076;11.878;2023-08-30T05:55:37;4.47;;;4.07;;
19396;SDS011;9834;48.076;11.878;2023-08-30T05:58:06;5.40;;;4.90;;
19396;SDS011;9834;48.076;11.878;2023-08-30T06:00:33;5.13;;;4.63;;
19396;SDS011;9834;48.076;11.878;2023-08-30T06:03:00;4.73;;;4.33;;
19396;SDS011;9834;48.076;11.878;2023-08-30T06:05:27;8.87;;;4.87;;
19396;SDS011;9834;48.076;11.878;2023-08-30T06:07:54;4.57;;;3.97;;
19396;SDS011;9834;48.076;11.878;2023-08-30T06:10:29;5.63;;;4.53;;
19396;SDS011;9834;48.076;11.878;2023-08-30T06:12:56;5.47;;;4.97;;
19396;SDS011;9834;48.076;11.878;2023-08-30T06:15:25;5.37;;;4.87;;
19396;SDS011;9834;48.076;11.878;2023-08-30T06:17:57;5.03;;;4.43;;
19396;SDS011;9834;48.076;11.878;2023-08-30T06:20:26;6.50;;;4.63;;
19396;SDS011;9834;48.076;11.878;2023-08-30T06:22:58;5.20;;;4.80;;
19396;SDS011;9834;48.076;11.878;2023-08-30T06:25:33;6.57;;;5.87;;
19396;SDS011;9834;48.076;11.878;2023-08-30T06:28:00;5.87;;;5.13;;
19396;SDS011;9834;48.076;11.878;2023-08-30T06:30:28;4.83;;;4.43;;
19396;SDS011;9834;48.076;11.878;2023-08-30T06:32:55;5.23;;;4.50;;
19396;SDS011;9834;48.076;11.878;2023-08-30T06:35:22;5.60;;;5.10;;
19396;SDS011;9834;48.076;11.878;2023-08-30T06:37:53;9.53;;;5.60;;
19396;SDS011;9834;48.076;11.878;2023-08-30T06:40:25;7.67;;;5.40;;
19396;SDS011;9834;48.076;11.878;2023-08-30T06:42:56;5.73;;;5.23;;
19396;SDS011;9834;48.076;11.878;2023-08-30T06:45:24;6.07;;;4.97;;
19396;SDS011;9834;48.076;11.878;2023-08-30T06:47:53;4.37;;;3.97;;
19396;SDS011;9834;48.076;11.878;2023-08-30T06:50:26;5.63;;;4.93;;
19396;SDS011;9834;48.076;11.878;2023-08-30T06:52:52;6.83;;;5.40;;
19396;SDS011;9834;48.076;11.878;2023-08-30T06:55:22;6.80;;;4.90;;
19396;SDS011;9834;48.076;11.878;2023-08-30T06:57:49;5.77;;;5.27;;
19396;SDS011;9834;48.076;11.878;2023-08-30T07:00:18;7.53;;;5.03;;
19396;SDS011;9834;48.076;11.878;2023-08-30T07:02:45;4.70;;;4.30;;
19396;SDS011;9834;48.076;11.878;2023-08-30T07:05:15;4.20;;;3.80;;
19396;SDS011;9834;48.076;11.878;2023-08-30T07:07:48;6.13;;;4.10;;
19396;SDS011;9834;48.076;11.878;2023-08-30T07:10:15;5.43;;;2.80;;
19396;SDS011;9834;48.076;11.878;2023-08-30T07:12:42;4.10;;;3.60;;
19396;SDS011;9834;48.076;11.878;2023-08-30T07:15:10;7.80;;;4.17;;
19396;SDS011;9834;48.076;11.878;2023-08-30T07:17:41;4.13;;;3.73;;
19396;SDS011;9834;48.076;11.878;2023-08-30T07:20:11;3.03;;;2.83;;
19396;SDS011;9834;48.076;11.878;2023-08-30T07:22:38;3.43;;;3.07;;
19396;SDS011;9834;48.076;11.878;2023-08-30T07:25:05;15.07;;;3.13;;
19396;SDS011;9834;48.076;11.878;2023-08-30T07:27:33;3.47;;;3.17;;
19396;SDS011;9834;48.076;11.878;2023-08-30T07:30:00;3.17;;;2.80;;
19396;SDS011;9834;48.076;11.878;2023-08-30T07:32:29;4.97;;;3.00;;
19396;SDS011;9834;48.076;11.878;2023-08-30T07:35:02;3.60;;;3.30;;
19396;SDS011;9834;48.076;11.878;2023-08-30T07:37:29;2.67;;;2.47;;
19396;SDS011;9834;48.076;11.878;2023-08-30T07:40:00;2.87;;;2.67;;
19396;SDS011;9834;48.076;11.878;2023-08-30T07:42:32;2.60;;;2.40;;
19396;SDS011;9834;48.076;11.878;2023-08-30T07:45:17;2.90;;;2.10;;
19396;SDS011;9834;48.076;11.878;2023-08-30T07:47:44;2.80;;;2.60;;
19396;SDS011;9834;48.076;11.878;2023-08-30T07:50:15;2.80;;;2.60;;
19396;SDS011;9834;48.076;11.878;2023-08-30T07:52:42;2.73;;;2.50;;
19396;SDS011;9834;48.076;11.878;2023-08-30T07:55:12;3.43;;;2.47;;
19396;SDS011;9834;48.076;11.878;2023-08-30T07:57:40;3.07;;;2.87;;
19396;SDS011;9834;48.076;11.878;2023-08-30T08:00:10;3.80;;;2.33;;
19396;SDS011;9834;48.076;11.878;2023-08-30T08:02:38;2.83;;;2.60;;
19396;SDS011;9834;48.076;11.878;2023-08-30T08:05:08;2.67;;;2.47;;
19396;SDS011;9834;48.076;11.878;2023-08-30T08:07:42;4.17;;;3.03;;
19396;SDS011;9834;48.076;11.878;2023-08-30T08:10:12;6.63;;;2.90;;
19396;SDS011;9834;48.076;11.878;2023-08-30T08:12:48;3.50;;;3.10;;
19396;SDS011;9834;48.076;11.878;2023-08-30T08:15:23;3.27;;;2.97;;
19396;SDS011;9834;48.076;11.878;2023-08-30T08:17:50;2.40;;;2.20;;
19396;SDS011;9834;48.076;11.878;2023-08-30T08:20:19;3.57;;;3.27;;
19396;SDS011;9834;48.076;11.878;2023-08-30T08:22:53;2.77;;;2.57;;
19396;SDS011;9834;48.076;11.878;2023-08-30T08:25:20;2.70;;;2.47;;
19396;SDS011;9834;48.076;11.878;2023-08-30T08:27:48;3.20;;;2.47;;
19396;SDS011;9834;48.076;11.878;2023-08-30T08:30:19;4.43;;;3.50;;
19396;SDS011;9834;48.076;11.878;2023-08-30T08:32:46;3.63;;;2.47;;
19396;SDS011;9834;48.076;11.878;2023-08-30T08:35:13;5.03;;;2.00;;
19396;SDS011;9834;48.076;11.878;2023-08-30T08:37:40;3.40;;;3.00;;
19396;SDS011;9834;48.076;11.878;2023-08-30T08:40:12;2.67;;;2.20;;
19396;SDS011;9834;48.076;11.878;2023-08-30T08:42:41;2.50;;;2.30;;
19396;SDS011;9834;48.076;11.878;2023-08-30T08:45:12;3.43;;;2.53;;
19396;SDS011;9834;48.076;11.878;2023-08-30T08:47:43;2.67;;;2.47;;
19396;SDS011;9834;48.076;11.878;2023-08-30T08:50:14;4.40;;;2.27;;
19396;SDS011;9834;48.076;11.878;2023-08-30T08:52:46;2.90;;;2.70;;
19396;SDS011;9834;48.076;11.878;2023-08-30T08:55:17;2.10;;;1.90;;
19396;SDS011;9834;48.076;11.878;2023-08-30T08:57:51;2.57;;;2.20;;
19396;SDS011;9834;48.076;11.878;2023-08-30T09:00:20;4.80;;;1.90;;
19396;SDS011;9834;48.076;11.878;2023-08-30T09:02:47;2.87;;;2.23;;
19396;SDS011;9834;48.076;11.878;2023-08-30T09:05:17;2.80;;;2.17;;
19396;SDS011;9834;48.076;11.878;2023-08-30T09:07:44;1.93;;;1.83;;
19396;SDS011;9834;48.076;11.878;2023-08-30T09:10:13;4.70;;;1.87;;
19396;SDS011;9834;48.076;11.878;2023-08-30T09:12:46;2.43;;;2.23;;
19396;SDS011;9834;48.076;11.878;2023-08-30T09:15:16;3.27;;;2.97;;
19396;SDS011;9834;48.076;11.878;2023-08-30T09:17:46;2.23;;;2.03;;
19396;SDS011;9834;48.076;11.878;2023-08-30T09:20:16;1.77;;;1.67;;
19396;SDS011;9834;48.076;11.878;2023-08-30T09:22:52;2.07;;;1.90;;
19396;SDS011;9834;48.076;11.878;2023-08-30T09:25:22;2.27;;;2.07;;
19396;SDS011;9834;48.076;11.878;2023-08-30T09:27:58;1.63;;;1.53;;
19396;SDS011;9834;48.076;11.878;2023-08-30T09:30:26;3.30;;;2.67;;
19396;SDS011;9834;48.076;11.878;2023-08-30T09:33:00;2.73;;;2.13;;
19396;SDS011;9834;48.076;11.878;2023-08-30T09:35:47;2.60;;;2.07;;
19396;SDS011;9834;48.076;11.878;2023-08-30T09:38:17;2.30;;;2.10;;
19396;SDS011;9834;48.076;11.878;2023-08-30T09:40:44;1.87;;;1.77;;
19396;SDS011;9834;48.076;11.878;2023-08-30T09:43:23;3.20;;;2.30;;
19396;SDS011;9834;48.076;11.878;2023-08-30T09:46:02;1.63;;;1.53;;
19396;SDS011;9834;48.076;11.878;2023-08-30T09:48:30;1.77;;;1.67;;
19396;SDS011;9834;48.076;11.878;2023-08-30T09:51:00;3.63;;;2.50;;
19396;SDS011;9834;48.076;11.878;2023-08-30T09:53:37;1.57;;;1.47;;
19396;SDS011;9834;48.076;11.878;2023-08-30T09:56:10;2.23;;;2.03;;
19396;SDS011;9834;48.076;11.878;2023-08-30T09:58:46;1.63;;;1.53;;
19396;SDS011;9834;48.076;11.878;2023-08-30T10:01:13;6.27;;;2.23;;
19396;SDS011;9834;48.076;11.878;2023-08-30T10:03:44;3.57;;;1.97;;
19396;SDS011;9834;48.076;11.878;2023-08-30T10:06:19;1.97;;;1.57;;
19396;SDS011;9834;48.076;11.878;2023-08-30T10:08:46;2.47;;;2.27;;
19396;SDS011;9834;48.076;11.878;2023-08-30T10:11:15;1.20;;;1.20;;
19396;SDS011;9834;48.076;11.878;2023-08-30T10:13:45;2.20;;;1.70;;
19396;SDS011;9834;48.076;11.878;2023-08-30T10:16:15;2.80;;;1.97;;
19396;SDS011;9834;48.076;11.878;2023-08-30T10:18:50;2.40;;;2.20;;
19396;SDS011;9834;48.076;11.878;2023-08-30T10:21:26;3.43;;;2.13;;
19396;SDS011;9834;48.076;11.878;2023-08-30T10:23:55;4.77;;;1.87;;
19396;SDS011;9834;48.076;11.878;2023-08-30T10:26:25;1.83;;;1.73;;
19396;SDS011;9834;48.076;11.878;2023-08-30T10:29:04;1.40;;;1.30;;
19396;SDS011;9834;48.076;11.878;2023-08-30T10:31:33;1.50;;;1.40;;
19396;SDS011;9834;48.076;11.878;2023-08-30T10:34:00;1.87;;;1.77;;
19396;SDS011;9834;48.076;11.878;2023-08-30T10:36:29;1.43;;;1.33;;
19396;SDS011;9834;48.076;11.878;2023-08-30T10:38:58;1.07;;;1.07;;
19396;SDS011;9834;48.076;11.878;2023-08-30T10:41:28;1.00;;;1.00;;
19396;SDS011;9834;48.076;11.878;2023-08-30T10:43:59;0.90;;;0.90;;
19396;SDS011;9834;48.076;11.878;2023-08-30T10:46:31;2.77;;;0.83;;
19396;SDS011;9834;48.076;11.878;2023-08-30T10:49:08;3.60;;;1.33;;
19396;SDS011;9834;48.076;11.878;2023-08-30T10:51:37;0.93;;;0.80;;
19396;SDS011;9834;48.076;11.878;2023-08-30T10:54:12;1.30;;;1.23;;
19396;SDS011;9834;48.076;11.878;2023-08-30T10:56:54;0.88;;;0.88;;
19396;SDS011;9834;48.076;11.878;2023-08-30T10:59:23;1.13;;;1.00;;
19396;SDS011;9834;48.076;11.878;2023-08-30T11:01:50;3.78;;;1.35;;
19396;SDS011;9834;48.076;11.878;2023-08-30T11:04:28;2.95;;;0.95;;
19396;SDS011;9834;48.076;11.878;2023-08-30T11:06:58;2.10;;;1.02;;
19396;SDS011;9834;48.076;11.878;2023-08-30T11:09:25;3.58;;;1.42;;
19396;SDS011;9834;48.076;11.878;2023-08-30T11:11:58;2.00;;;1.17;;
19396;SDS011;9834;48.076;11.878;2023-08-30T11:14:33;0.70;;;0.70;;
19396;SDS011;9834;48.076;11.878;2023-08-30T11:17:12;0.60;;;0.60;;
19396;SDS011;9834;48.076;11.878;2023-08-30T11:19:39;2.10;;;1.30;;
19396;SDS011;9834;48.076;11.878;2023-08-30T11:22:06;2.58;;;0.73;;
19396;SDS011;9834;48.076;11.878;2023-08-30T11:24:34;1.10;;;1.00;;
19396;SDS011;9834;48.076;11.878;2023-08-30T11:27:03;0.50;;;0.50;;
19396;SDS011;9834;48.076;11.878;2023-08-30T11:29:47;1.05;;;0.90;;
19396;SDS011;9834;48.076;11.878;2023-08-30T11:32:18;0.82;;;0.82;;
19396;SDS011;9834;48.076;11.878;2023-08-30T11:34:54;0.75;;;0.75;;
19396;SDS011;9834;48.076;11.878;2023-08-30T11:37:30;1.13;;;1.00;;
19396;SDS011;9834;48.076;11.878;2023-08-30T11:39:58;1.13;;;0.80;;
19396;SDS011;9834;48.076;11.878;2023-08-30T11:42:25;0.65;;;0.65;;
19396;SDS011;9834;48.076;11.878;2023-08-30T11:44:54;0.85;;;0.85;;
19396;SDS011;9834;48.076;11.878;2023-08-30T11:47:22;0.60;;;0.60;;
19396;SDS011;9834;48.076;11.878;2023-08-30T11:49:56;0.88;;;0.82;;
19396;SDS011;9834;48.076;11.878;2023-08-30T11:52:24;1.08;;;0.80;;
19396;SDS011;9834;48.076;11.878;2023-08-30T11:54:52;0.50;;;0.50;;
19396;SDS011;9834;48.076;11.878;2023-08-30T11:57:20;0.55;;;0.55;;
19396;SDS011;9834;48.076;11.878;2023-08-30T11:59:47;1.35;;;0.90;;
19396;SDS011;9834;48.076;11.878;2023-08-30T12:02:18;0.60;;;0.60;;
19396;SDS011;9834;48.076;11.878;2023-08-30T12:04:50;0.40;;;0.40;;
19396;SDS011;9834;48.076;11.878;2023-08-30T12:07:22;0.80;;;0.57;;
19396;SDS011;9834;48.076;11.878;2023-08-30T12:09:50;0.75;;;0.75;;
19396;SDS011;9834;48.076;11.878;2023-08-30T12:12:19;1.20;;;1.08;;
19396;SDS011;9834;48.076;11.878;2023-08-30T12:14:54;0.70;;;0.70;;
19396;SDS011;9834;48.076;11.878;2023-08-30T12:17:25;0.70;;;0.70;;
19396;SDS011;9834;48.076;11.878;2023-08-30T12:19:55;0.98;;;0.95;;
19396;SDS011;9834;48.076;11.878;2023-08-30T12:22:22;0.47;;;0.47;;
19396;SDS011;9834;48.076;11.878;2023-08-30T12:24:49;3.30;;;0.73;;
19396;SDS011;9834;48.076;11.878;2023-08-30T12:27:22;0.73;;;0.50;;
19396;SDS011;9834;48.076;11.878;2023-08-30T12:29:49;0.43;;;0.43;;
19396;SDS011;9834;48.076;11.878;2023-08-30T12:32:19;0.55;;;0.55;;
19396;SDS011;9834;48.076;11.878;2023-08-30T12:34:47;0.50;;;0.50;;
19396;SDS011;9834;48.076;11.878;2023-08-30T12:37:17;0.50;;;0.50;;
19396;SDS011;9834;48.076;11.878;2023-08-30T12:39:44;0.40;;;0.40;;
19396;SDS011;9834;48.076;11.878;2023-08-30T12:42:11;0.55;;;0.55;;
19396;SDS011;9834;48.076;11.878;2023-08-30T12:44:44;0.63;;;0.63;;
19396;SDS011;9834;48.076;11.878;2023-08-30T12:47:13;1.33;;;0.90;;
19396;SDS011;9834;48.076;11.878;2023-08-30T12:49:40;0.50;;;0.50;;
19396;SDS011;9834;48.076;11.878;2023-08-30T12:52:11;0.65;;;0.60;;
19396;SDS011;9834;48.076;11.878;2023-08-30T12:54:41;1.13;;;0.63;;
19396;SDS011;9834;48.076;11.878;2023-08-30T12:57:17;1.05;;;0.90;;
19396;SDS011;9834;48.076;11.878;2023-08-30T12:59:44;1.25;;;0.60;;
19396;SDS011;9834;48.076;11.878;2023-08-30T13:02:12;0.75;;;0.75;;
19396;SDS011;9834;48.076;11.878;2023-08-30T13:04:42;0.85;;;0.82;;
19396;SDS011;9834;48.076;11.878;2023-08-30T13:07:13;0.60;;;0.60;;
19396;SDS011;9834;48.076;11.878;2023-08-30T13:09:46;0.68;;;0.68;;
19396;SDS011;9834;48.076;11.878;2023-08-30T13:12:14;0.95;;;0.95;;
19396;SDS011;9834;48.076;11.878;2023-08-30T13:14:41;0.47;;;0.47;;
19396;SDS011;9834;48.076;11.878;2023-08-30T13:17:11;0.82;;;0.80;;
19396;SDS011;9834;48.076;11.878;2023-08-30T13:19:38;0.65;;;0.65;;
19396;SDS011;9834;48.076;11.878;2023-08-30T13:22:05;1.10;;;1.00;;
19396;SDS011;9834;48.076;11.878;2023-08-30T13:24:33;0.68;;;0.68;;
19396;SDS011;9834;48.076;11.878;2023-08-30T13:27:00;0.98;;;0.80;;
19396;SDS011;9834;48.076;11.878;2023-08-30T13:29:36;0.50;;;0.50;;
19396;SDS011;9834;48.076;11.878;2023-08-30T13:32:08;0.45;;;0.45;;
19396;SDS011;9834;48.076;11.878;2023-08-30T13:34:37;0.65;;;0.65;;
19396;SDS011;9834;48.076;11.878;2023-08-30T13:37:04;1.10;;;0.82;;
19396;SDS011;9834;48.076;11.878;2023-08-30T13:39:33;0.63;;;0.63;;
19396;SDS011;9834;48.076;11.878;2023-08-30T13:42:00;0.60;;;0.45;;
19396;SDS011;9834;48.076;11.878;2023-08-30T13:44:27;1.15;;;0.50;;
19396;SDS011;9834;48.076;11.878;2023-08-30T13:46:57;0.50;;;0.50;;
19396;SDS011;9834;48.076;11.878;2023-08-30T13:49:24;0.57;;;0.57;;
19396;SDS011;9834;48.076;11.878;2023-08-30T13:51:52;0.60;;;0.60;;
19396;SDS011;9834;48.076;11.878;2023-08-30T13:54:19;0.88;;;0.70;;
19396;SDS011;9834;48.076;11.878;2023-08-30T13:56:58;1.05;;;0.98;;
19396;SDS011;9834;48.076;11.878;2023-08-30T13:59:36;0.53;;;0.53;;
19396;SDS011;9834;48.076;11.878;2023-08-30T14:02:03;2.55;;;1.25;;
19396;SDS011;9834;48.076;11.878;2023-08-30T14:04:30;0.87;;;0.87;;
19396;SDS011;9834;48.076;11.878;2023-08-30T14:07:04;1.03;;;1.03;;
19396;SDS011;9834;48.076;11.878;2023-08-30T14:09:35;1.47;;;1.23;;
19396;SDS011;9834;48.076;11.878;2023-08-30T14:12:09;1.13;;;0.77;;
19396;SDS011;9834;48.076;11.878;2023-08-30T14:14:36;0.80;;;0.80;;
19396;SDS011;9834;48.076;11.878;2023-08-30T14:17:02;3.07;;;1.23;;
19396;SDS011;9834;48.076;11.878;2023-08-30T14:19:34;2.53;;;1.67;;
19396;SDS011;9834;48.076;11.878;2023-08-30T14:22:09;1.57;;;1.47;;
19396;SDS011;9834;48.076;11.878;2023-08-30T14:24:46;1.80;;;1.03;;
19396;SDS011;9834;48.076;11.878;2023-08-30T14:27:14;1.40;;;1.30;;
19396;SDS011;9834;48.076;11.878;2023-08-30T14:29:41;1.53;;;1.17;;
19396;SDS011;9834;48.076;11.878;2023-08-30T14:32:11;2.50;;;2.03;;
19396;SDS011;9834;48.076;11.878;2023-08-30T14:34:38;1.80;;;1.63;;
19396;SDS011;9834;48.076;11.878;2023-08-30T14:37:05;2.77;;;1.27;;
19396;SDS011;9834;48.076;11.878;2023-08-30T14:39:34;1.27;;;1.23;;
19396;SDS011;9834;48.076;11.878;2023-08-30T14:42:06;0.97;;;0.97;;
19396;SDS011;9834;48.076;11.878;2023-08-30T14:44:37;1.20;;;1.20;;
19396;SDS011;9834;48.076;11.878;2023-08-30T14:47:07;2.03;;;1.13;;
19396;SDS011;9834;48.076;11.878;2023-08-30T14:49:34;0.77;;;0.77;;
19396;SDS011;9834;48.076;11.878;2023-08-30T14:52:04;1.17;;;1.17;;
19396;SDS011;9834;48.076;11.878;2023-08-30T14:54:38;1.47;;;1.37;;
19396;SDS011;9834;48.076;11.878;2023-08-30T14:57:08;1.50;;;1.40;;
19396;SDS011;9834;48.076;11.878;2023-08-30T14:59:39;1.10;;;1.10;;
19396;SDS011;9834;48.076;11.878;2023-08-30T15:02:07;2.20;;;2.00;;
19396;SDS011;9834;48.076;11.878;2023-08-30T15:04:44;1.93;;;1.70;;
19396;SDS011;9834;48.076;11.878;2023-08-30T15:07:13;1.67;;;1.57;;
19396;SDS011;9834;48.076;11.878;2023-08-30T15:09:49;3.57;;;1.60;;
19396;SDS011;9834;48.076;11.878;2023-08-30T15:12:16;4.07;;;1.90;;